Time;durP1;ratioP1;P1;durP2;ratioP2;P2;SDS_P1;SDS_P2;PMS_P1;PMS_P2;Temp;Humidity;BMP_temperature;BMP_pressure;BME280_temperature;BME280_humidity;BME280_pressure;Samples;Min_cycle;Max_cycle;Signal;HPM_P1;HPM_P2
2022/12/26 00:00:46;;;;;;;171.93;30.70;;;8.80;99.90;;;;;;5092527;28;20454;-69
2022/12/26 00:03:11;;;;;;;175.30;29.10;;;9.00;99.90;;;;;;5092308;28;20075;-69
2022/12/26 00:05:37;;;;;;;134.80;28.10;;;8.80;99.90;;;;;;5093532;28;20109;-69
2022/12/26 00:08:03;;;;;;;169.85;28.25;;;9.20;99.90;;;;;;5093440;28;20043;-69
2022/12/26 00:10:29;;;;;;;;;;;9.10;99.90;;;;;;5075909;28;20083;-69
2022/12/26 00:12:54;;;;;;;191.23;27.50;;;8.50;99.90;;;;;;5093017;28;20393;-69
2022/12/26 00:15:20;;;;;;;186.25;28.70;;;8.70;99.90;;;;;;5092560;28;20048;-69
2022/12/26 00:17:46;;;;;;;155.60;26.38;;;8.80;99.90;;;;;;5093526;28;20169;-69
2022/12/26 00:20:11;;;;;;;176.07;26.70;;;8.40;99.90;;;;;;5091949;28;20043;-69
2022/12/26 00:22:37;;;;;;;200.93;30.17;;;8.70;99.90;;;;;;5093164;28;20148;-69
2022/12/26 00:25:03;;;;;;;171.52;26.70;;;9.00;99.90;;;;;;5093131;28;20043;-69
2022/12/26 00:27:29;;;;;;;168.60;26.58;;;9.00;99.90;;;;;;5074877;28;20051;-69
2022/12/26 00:29:54;;;;;;;151.25;25.42;;;8.70;99.90;;;;;;5091778;28;20503;-69
2022/12/26 00:32:20;;;;;;;171.63;27.70;;;8.70;99.90;;;;;;5093024;28;20112;-68
2022/12/26 00:34:46;;;;;;;171.43;27.25;;;8.80;99.90;;;;;;5091256;28;20056;-69
2022/12/26 00:37:11;;;;;;;174.38;25.88;;;8.70;99.90;;;;;;5092150;28;20054;-68
2022/12/26 00:39:37;;;;;;;208.25;27.42;;;9.10;99.90;;;;;;5093416;28;20039;-69
2022/12/26 00:42:03;;;;;;;203.30;26.33;;;8.90;99.90;;;;;;5091490;28;20418;-69
2022/12/26 00:44:28;;;;;;;214.23;27.33;;;8.80;99.90;;;;;;5092766;28;20119;-69
2022/12/26 00:46:54;;;;;;;195.90;26.58;;;8.80;99.90;;;;;;5091725;28;20044;-69
2022/12/26 00:49:20;;;;;;;166.77;24.25;;;8.70;99.90;;;;;;5091765;28;20579;-69
2022/12/26 00:51:45;;;;;;;176.25;25.90;;;8.70;99.90;;;;;;5092670;28;20095;-69
2022/12/26 00:54:11;;;;;;;191.20;24.60;;;9.20;99.90;;;;;;5092410;28;20088;-69
2022/12/26 00:56:37;;;;;;;142.43;23.60;;;8.80;99.90;;;;;;5091104;28;20411;-68
2022/12/26 00:59:02;;;;;;;161.73;25.45;;;8.60;99.90;;;;;;5092111;28;20083;-68
2022/12/26 01:01:29;;;;;;;171.95;23.85;;;8.60;99.90;;;;;;5091378;28;20449;-68
2022/12/26 01:03:56;;;;;;;177.57;26.60;;;9.00;99.90;;;;;;5092438;28;20048;-69
2022/12/26 01:06:22;;;;;;;164.90;23.83;;;9.00;99.90;;;;;;5092470;28;20557;-69
2022/12/26 01:08:48;;;;;;;177.98;24.52;;;8.70;99.90;;;;;;5092123;28;20146;-68
2022/12/26 01:11:38;;;;;;;181.60;26.27;;;9.00;99.90;;;;;;5091749;28;20127;-68
2022/12/26 01:14:01;;;;;;;193.07;27.10;;;8.90;99.90;;;;;;5091772;28;20517;-68
2022/12/26 01:16:26;;;;;;;165.02;25.13;;;8.60;99.90;;;;;;5091040;28;20048;-68
2022/12/26 01:18:52;;;;;;;152.35;24.85;;;8.90;99.90;;;;;;5090980;28;20555;-68
2022/12/26 01:21:18;;;;;;;166.43;25.52;;;9.00;99.90;;;;;;5092190;28;20048;-68
2022/12/26 01:23:43;;;;;;;151.00;24.88;;;8.60;99.90;;;;;;5091892;28;20097;-68
2022/12/26 01:26:09;;;;;;;141.77;24.88;;;8.60;99.90;;;;;;5090834;28;20040;-69
2022/12/26 01:28:34;;;;;;;137.93;23.98;;;8.80;99.90;;;;;;5091119;28;20047;-68
2022/12/26 01:31:02;;;;;;;144.90;25.98;;;8.70;99.90;;;;;;5074318;28;20091;-68
2022/12/26 01:33:29;;;;;;;136.75;25.05;;;9.00;99.90;;;;;;5091971;28;20048;-68
2022/12/26 01:35:54;;;;;;;143.48;25.58;;;8.90;99.90;;;;;;5092076;28;20059;-68
2022/12/26 01:38:21;;;;;;;157.77;26.48;;;9.00;99.90;;;;;;5090671;28;20047;-68
2022/12/26 01:40:47;;;;;;;157.90;26.90;;;9.10;99.90;;;;;;5092041;28;20055;-68
2022/12/26 01:43:16;;;;;;;152.82;27.23;;;9.00;99.90;;;;;;5091582;28;20053;-68
2022/12/26 01:45:49;;;;;;;167.07;28.48;;;8.70;99.90;;;;;;5091949;28;20130;-68
2022/12/26 01:48:24;;;;;;;162.10;27.58;;;9.30;99.90;;;;;;5092044;28;20109;-68
2022/12/26 01:51:00;;;;;;;147.52;27.90;;;9.10;99.90;;;;;;5092172;28;20048;-68
2022/12/26 01:53:36;;;;;;;132.88;26.30;;;8.90;99.90;;;;;;5092049;28;20040;-67
2022/12/26 01:56:10;;;;;;;174.48;28.55;;;8.50;99.90;;;;;;5092000;28;20040;-68
2022/12/26 01:58:42;;;;;;;158.85;28.00;;;8.90;99.90;;;;;;5091948;28;20052;-68
2022/12/26 02:01:09;;;;;;;153.18;26.80;;;8.80;99.90;;;;;;5091887;28;20059;-68
2022/12/26 02:06:21;;;;;;;142.07;26.05;;;8.90;99.90;;;;;;5091887;28;20059;-69
2022/12/26 02:08:47;;;;;;;135.02;25.77;;;9.00;99.90;;;;;;5073754;28;20047;-70
2022/12/26 02:11:40;;;;;;;147.40;26.45;;;8.90;99.90;;;;;;5091807;28;20044;-70
2022/12/26 02:14:06;;;;;;;140.10;25.27;;;9.10;99.90;;;;;;5085559;28;20511;-69
2022/12/26 02:16:34;;;;;;;163.95;26.70;;;9.20;99.90;;;;;;5091775;28;20059;-70
2022/12/26 02:19:00;;;;;;;143.55;25.23;;;9.00;99.90;;;;;;5090654;28;20052;-71
2022/12/26 02:21:32;;;;;;;134.70;24.92;;;8.90;99.90;;;;;;5091680;28;20503;-71
2022/12/26 02:24:07;;;;;;;139.32;25.48;;;9.00;99.90;;;;;;5094227;28;20059;-71
2022/12/26 02:26:38;;;;;;;130.75;25.50;;;9.20;99.90;;;;;;5095708;28;20101;-71
2022/12/26 02:29:42;;;;;;;125.03;23.50;;;9.20;99.90;;;;;;5094431;28;20133;-70
2022/12/26 02:32:19;;;;;;;133.32;24.10;;;9.10;99.90;;;;;;5095291;28;20044;-70
2022/12/26 02:35:11;;;;;;;121.35;23.25;;;8.70;99.90;;;;;;5093628;28;20152;-70
2022/12/26 02:37:55;;;;;;;129.05;23.52;;;8.70;99.90;;;;;;5094922;28;20059;-70
2022/12/26 02:40:59;;;;;;;119.00;23.17;;;9.00;99.90;;;;;;5095173;28;20519;-70
2022/12/26 02:43:28;;;;;;;107.28;21.80;;;9.20;99.90;;;;;;5090765;28;20071;-70
2022/12/26 02:48:54;;;;;;;95.25;20.15;;;8.90;99.90;;;;;;5095062;28;20048;-71
2022/12/26 03:14:41;;;;;;;94.90;23.15;;;9.10;99.90;;;;;;5094501;28;20058;-69
2022/12/26 03:17:20;;;;;;;89.75;23.45;;;9.00;99.90;;;;;;5094515;28;20106;-69
2022/12/26 03:20:01;;;;;;;96.15;25.13;;;9.20;99.90;;;;;;5094390;28;20498;-69
2022/12/26 03:22:42;;;;;;;97.15;25.35;;;9.40;99.90;;;;;;5094659;28;20131;-69
2022/12/26 03:27:56;;;;;;;117.10;27.58;;;9.40;99.90;;;;;;5094421;28;20079;-69
2022/12/26 03:34:16;;;;;;;105.40;28.20;;;9.10;99.90;;;;;;5093868;28;20048;-69
2022/12/26 03:35:56;;;;;;;114.97;30.02;;;9.30;99.90;;;;;;5093819;28;20134;-70
2022/12/26 03:38:33;;;;;;;126.75;30.85;;;9.20;99.90;;;;;;5092964;28;20503;-69
2022/12/26 04:19:55;;;;;;;108.28;29.77;;;9.30;99.90;;;;;;5093013;28;20048;-69
2022/12/26 04:45:05;;;;;;;96.38;27.83;;;9.10;99.90;;;;;;5092462;28;20493;-69
2022/12/26 04:47:32;;;;;;;107.63;29.20;;;9.30;99.90;;;;;;5092530;28;20056;-69
2022/12/26 04:50:13;;;;;;;75.95;27.30;;;9.40;99.90;;;;;;5092698;28;20056;-69
2022/12/26 04:52:59;;;;;;;76.70;28.88;;;8.90;99.90;;;;;;5091712;28;20059;-69
2022/12/26 04:55:32;;;;;;;78.95;27.00;;;9.00;99.90;;;;;;5092593;28;20456;-68
2022/12/26 04:57:58;;;;;;;77.53;27.35;;;9.60;99.90;;;;;;5092578;28;20043;-68
2022/12/26 05:00:26;;;;;;;82.47;27.65;;;9.50;99.90;;;;;;5092535;28;20055;-68
2022/12/26 05:09:33;;;;;;;66.00;25.83;;;9.40;99.90;;;;;;5092546;28;20530;-68
2022/12/26 05:11:25;;;;;;;67.57;28.30;;;9.20;99.90;;;;;;5092786;28;20056;-68
2022/12/26 05:13:52;;;;;;;;;;;9.40;99.90;;;;;;5092778;28;20135;-69
2022/12/26 05:30:08;;;;;;;61.63;26.42;;;9.40;99.90;;;;;;5092180;28;20052;-68
2022/12/26 05:35:18;;;;;;;53.28;25.50;;;9.30;99.90;;;;;;5091840;28;19927;-68
2022/12/26 05:37:44;;;;;;;59.08;27.02;;;9.00;99.90;;;;;;5091113;28;20401;-68
2022/12/26 05:40:10;;;;;;;57.58;25.88;;;8.90;99.90;;;;;;5092289;28;20345;-69
2022/12/26 05:42:36;;;;;;;59.90;26.10;;;9.00;99.90;;;;;;5092570;28;20754;-68
2022/12/26 05:45:02;;;;;;;61.78;27.10;;;9.10;99.90;;;;;;5092107;28;20044;-69
2022/12/26 05:47:28;;;;;;;63.55;27.80;;;8.90;99.90;;;;;;5092049;28;20044;-69
2022/12/26 05:49:53;;;;;;;57.63;26.92;;;9.30;99.90;;;;;;5073941;28;20392;-69
2022/12/26 05:52:19;;;;;;;64.35;27.63;;;9.00;99.90;;;;;;5091929;28;20044;-69
2022/12/26 05:54:44;;;;;;;63.38;27.75;;;9.10;99.90;;;;;;5092158;28;20174;-68
2022/12/26 05:57:10;;;;;;;54.47;26.48;;;9.30;99.90;;;;;;5093907;28;20048;-68
2022/12/26 05:59:36;;;;;;;61.03;26.83;;;9.40;99.90;;;;;;5077559;28;20044;-69
2022/12/26 06:02:01;;;;;;;54.97;28.40;;;9.30;99.90;;;;;;5095957;28;20040;-68
2022/12/26 06:04:28;;;;;;;61.97;28.85;;;8.80;99.90;;;;;;5095923;28;20093;-68
2022/12/26 06:06:55;;;;;;;56.60;27.25;;;9.00;99.90;;;;;;5096099;28;20093;-69
2022/12/26 06:09:24;;;;;;;;;;;9.00;99.90;;;;;;5095958;28;20442;-68
2022/12/26 06:11:49;;;;;;;55.67;27.35;;;9.00;99.90;;;;;;5095694;28;20356;-68
2022/12/26 06:14:15;;;;;;;54.75;27.00;;;8.80;99.90;;;;;;5095327;28;20044;-69
2022/12/26 06:16:41;;;;;;;55.08;26.52;;;9.10;99.90;;;;;;5095679;28;20097;-67
2022/12/26 06:19:07;;;;;;;52.45;26.58;;;9.40;99.90;;;;;;5095899;28;20052;-69
2022/12/26 06:21:33;;;;;;;52.78;26.45;;;9.20;99.90;;;;;;5095562;28;20040;-69
2022/12/26 06:23:58;;;;;;;52.58;24.35;;;9.30;99.90;;;;;;5095545;28;20044;-69
2022/12/26 06:26:24;;;;;;;48.65;23.67;;;9.40;99.90;;;;;;5094457;28;20103;-68
2022/12/26 06:28:50;;;;;;;49.67;26.40;;;9.00;99.90;;;;;;5094194;28;20044;-68
2022/12/26 06:31:20;;;;;;;47.35;23.38;;;9.50;99.90;;;;;;5095365;28;20044;-69
2022/12/26 06:33:47;;;;;;;47.30;23.30;;;9.30;99.90;;;;;;5095246;28;20087;-68
2022/12/26 06:36:18;;;;;;;51.25;25.50;;;9.20;99.90;;;;;;5094023;28;20093;-68
2022/12/26 06:38:44;;;;;;;41.40;21.23;;;9.30;99.90;;;;;;5095234;28;20373;-68
2022/12/26 06:41:13;;;;;;;42.80;22.75;;;9.50;99.90;;;;;;5095211;28;20084;-69
2022/12/26 06:43:38;;;;;;;46.45;22.70;;;9.40;99.90;;;;;;5094875;28;20051;-68
2022/12/26 06:46:06;;;;;;;42.35;21.33;;;9.50;99.90;;;;;;5095087;28;20377;-68
2022/12/26 06:48:38;;;;;;;43.25;21.45;;;9.30;99.90;;;;;;5095412;28;20658;-69
2022/12/26 06:51:10;;;;;;;37.55;20.48;;;9.50;99.90;;;;;;5076926;28;20051;-69
2022/12/26 06:53:37;;;;;;;33.58;19.63;;;9.50;99.90;;;;;;5094695;28;20472;-69
2022/12/26 06:56:16;;;;;;;36.50;19.70;;;9.50;99.90;;;;;;5094833;28;20131;-69
2022/12/26 07:03:57;;;;;;;34.72;18.23;;;9.40;99.90;;;;;;5143549;27;1420007;-68
2022/12/26 07:06:25;;;;;;;38.55;17.95;;;9.00;99.90;;;;;;5153449;27;20089;-69
2022/12/26 07:08:53;;;;;;;34.00;18.40;;;9.10;99.90;;;;;;5153370;27;20049;-68
2022/12/26 07:11:21;;;;;;;30.85;18.00;;;9.40;99.90;;;;;;5171719;27;20082;-68
2022/12/26 07:13:47;;;;;;;34.38;19.50;;;9.30;99.90;;;;;;5171448;27;20125;-68
2022/12/26 07:16:13;;;;;;;31.67;18.48;;;9.30;99.90;;;;;;5171654;27;20481;-68
2022/12/26 07:18:40;;;;;;;31.77;16.85;;;9.40;99.90;;;;;;5171661;27;20050;-68
2022/12/26 07:21:07;;;;;;;32.45;16.27;;;9.50;99.90;;;;;;5171573;27;20077;-68
2022/12/26 07:23:33;;;;;;;29.02;16.00;;;9.20;99.90;;;;;;5171423;27;20046;-67
2022/12/26 07:25:59;;;;;;;29.83;16.92;;;9.50;99.90;;;;;;5164086;27;20054;-70
2022/12/26 07:28:26;;;;;;;30.63;16.67;;;9.40;99.90;;;;;;5163111;27;20093;-66
2022/12/26 07:30:51;;;;;;;;;;;9.10;99.90;;;;;;5167260;27;20053;-70
2022/12/26 07:33:17;;;;;;;31.17;16.92;;;9.30;99.90;;;;;;5149818;27;20010;-69
2022/12/26 07:35:43;;;;;;;28.77;15.90;;;9.00;99.90;;;;;;5152905;27;20042;-71
2022/12/26 07:38:10;;;;;;;29.30;15.90;;;9.00;99.90;;;;;;5170839;27;20042;-70
2022/12/26 07:40:36;;;;;;;28.85;14.40;;;9.20;99.90;;;;;;5167470;27;20466;-71
2022/12/26 07:43:01;;;;;;;30.98;14.10;;;8.80;99.90;;;;;;5170275;27;20041;-71
2022/12/26 07:45:27;;;;;;;28.15;15.20;;;8.90;99.90;;;;;;5170357;27;20361;-70
2022/12/26 07:47:54;;;;;;;26.35;14.35;;;9.10;99.90;;;;;;5170633;27;20219;-70
2022/12/26 07:50:20;;;;;;;29.23;15.00;;;9.40;99.90;;;;;;5170762;27;20046;-69
2022/12/26 07:52:45;;;;;;;29.15;14.35;;;8.70;99.90;;;;;;5170893;27;20375;-71
2022/12/26 07:55:11;;;;;;;24.33;13.05;;;8.70;99.90;;;;;;5143273;27;20046;-70
2022/12/26 07:57:37;;;;;;;19.23;12.75;;;8.70;99.90;;;;;;5169349;27;20482;-70
2022/12/26 08:00:03;;;;;;;22.30;12.13;;;8.80;99.90;;;;;;5169094;27;20050;-68
2022/12/26 08:02:29;;;;;;;24.95;12.57;;;9.10;99.90;;;;;;5168818;27;20387;-71
2022/12/26 08:04:55;;;;;;;19.88;11.50;;;8.60;99.90;;;;;;5168695;27;20064;-67
2022/12/26 08:07:21;;;;;;;24.25;11.75;;;8.70;99.90;;;;;;5170045;27;20050;-68
2022/12/26 08:09:46;;;;;;;20.90;11.23;;;8.60;99.90;;;;;;5169471;27;20042;-68
2022/12/26 08:12:12;;;;;;;19.88;10.90;;;8.60;99.90;;;;;;5169645;27;20056;-68
2022/12/26 08:14:39;;;;;;;25.88;11.85;;;8.80;99.90;;;;;;5159993;27;20104;-68
2022/12/26 08:17:05;;;;;;;21.90;10.98;;;8.70;99.90;;;;;;5155396;27;20490;-70
2022/12/26 08:19:30;;;;;;;21.15;11.60;;;8.70;99.90;;;;;;5156133;27;20050;-68
2022/12/26 08:21:56;;;;;;;21.20;11.05;;;9.00;99.90;;;;;;5155830;27;20107;-68
2022/12/26 08:24:22;;;;;;;19.38;11.27;;;8.70;99.90;;;;;;5155087;27;20039;-67
2022/12/26 08:26:48;;;;;;;21.13;11.05;;;8.80;99.90;;;;;;5155785;27;20047;-68
2022/12/26 08:29:13;;;;;;;22.55;10.35;;;8.70;99.90;;;;;;5155793;27;20051;-69
2022/12/26 08:31:39;;;;;;;21.92;10.95;;;9.00;99.90;;;;;;5155285;27;20070;-67
2022/12/26 08:34:05;;;;;;;23.58;10.80;;;9.20;99.90;;;;;;5155713;27;20035;-68
2022/12/26 08:36:31;;;;;;;24.30;11.10;;;9.10;99.90;;;;;;5155550;27;20098;-68
2022/12/26 08:38:57;;;;;;;16.85;10.43;;;9.10;99.90;;;;;;5136594;27;20054;-69
2022/12/26 08:41:24;;;;;;;22.92;10.10;;;9.20;99.90;;;;;;5155547;27;20109;-67
2022/12/26 08:43:50;;;;;;;23.50;9.93;;;9.10;99.90;;;;;;5155393;27;20039;-69
2022/12/26 08:46:18;;;;;;;17.90;10.13;;;9.20;99.90;;;;;;5153714;27;20043;-68
2022/12/26 08:48:44;;;;;;;22.48;9.65;;;9.20;99.90;;;;;;5155388;27;20038;-67
2022/12/26 08:51:14;;;;;;;17.55;9.40;;;9.30;99.90;;;;;;5155110;27;20506;-67
2022/12/26 08:53:41;;;;;;;30.23;10.05;;;9.20;99.90;;;;;;5153531;27;20038;-68
2022/12/26 08:56:09;;;;;;;;;;;9.40;99.90;;;;;;5153190;27;20046;-72
2022/12/26 08:58:35;;;;;;;24.00;10.73;;;9.50;99.90;;;;;;5148617;27;20371;-69
2022/12/26 09:01:09;;;;;;;23.45;10.60;;;9.20;99.90;;;;;;5154528;27;20135;-68
2022/12/26 09:03:35;;;;;;;27.17;12.13;;;9.30;99.90;;;;;;5154260;27;20082;-68
2022/12/26 09:06:02;;;;;;;22.33;11.55;;;9.10;99.90;;;;;;5154705;27;20506;-68
2022/12/26 09:08:29;;;;;;;21.52;11.50;;;9.30;99.90;;;;;;5155342;27;20254;-68
2022/12/26 09:11:00;;;;;;;22.27;9.32;;;9.40;99.90;;;;;;5155632;27;20494;-67
2022/12/26 09:13:25;;;;;;;21.92;9.25;;;9.40;99.90;;;;;;5155530;27;20126;-67
2022/12/26 09:15:51;;;;;;;20.58;10.00;;;9.10;99.90;;;;;;5155266;27;20133;-69
2022/12/26 09:18:17;;;;;;;22.25;10.80;;;9.30;99.90;;;;;;5128678;27;20039;-73
2022/12/26 09:20:42;;;;;;;16.88;9.65;;;9.50;99.90;;;;;;5154706;27;20125;-68
2022/12/26 09:23:09;;;;;;;22.50;10.00;;;9.00;99.90;;;;;;5154094;27;20047;-68
2022/12/26 09:25:35;;;;;;;20.77;8.20;;;9.30;99.90;;;;;;5153320;27;20053;-67
2022/12/26 09:28:01;;;;;;;21.85;6.60;;;9.60;99.90;;;;;;5154267;27;20474;-68
2022/12/26 09:30:27;;;;;;;20.50;6.78;;;9.40;99.90;;;;;;5154940;27;20042;-68
2022/12/26 09:32:52;;;;;;;18.23;5.47;;;9.20;99.90;;;;;;5154142;27;20497;-67
2022/12/26 09:35:18;;;;;;;17.52;4.15;;;9.40;99.90;;;;;;5136202;27;20047;-68
2022/12/26 09:37:44;;;;;;;16.73;2.83;;;9.00;99.90;;;;;;5154306;27;20400;-71
2022/12/26 09:40:21;;;;;;;12.20;3.17;;;8.90;99.90;;;;;;5135624;27;20099;-68
2022/12/26 09:43:13;;;;;;;12.68;2.47;;;8.50;99.90;;;;;;5154529;27;20078;-68
2022/12/26 09:46:06;;;;;;;17.17;2.90;;;8.30;99.90;;;;;;5140408;27;20046;-67
2022/12/26 09:48:44;;;;;;;14.20;2.80;;;8.50;99.90;;;;;;5153780;27;20039;-67
2022/12/26 09:51:10;;;;;;;19.38;3.17;;;8.50;99.90;;;;;;5154192;27;20046;-66
2022/12/26 09:53:42;;;;;;;16.33;2.33;;;8.00;99.90;;;;;;5153910;27;20103;-68
2022/12/26 09:56:14;;;;;;;17.65;2.50;;;8.10;99.90;;;;;;5153752;27;20050;-67
2022/12/26 09:58:56;;;;;;;15.32;2.75;;;8.10;99.90;;;;;;5152905;27;20042;-69
2022/12/26 10:01:25;;;;;;;15.90;2.72;;;8.30;99.90;;;;;;5153611;27;20083;-69
2022/12/26 10:03:55;;;;;;;23.27;3.13;;;7.90;99.90;;;;;;5154316;27;20119;-69
2022/12/26 10:06:51;;;;;;;15.80;2.92;;;8.10;99.90;;;;;;5147738;27;20180;-70
2022/12/26 10:09:28;;;;;;;21.55;3.10;;;8.10;99.90;;;;;;5132144;27;20058;-70
2022/12/26 10:12:21;;;;;;;14.93;2.90;;;8.40;99.90;;;;;;5153604;27;20046;-69
2022/12/26 10:14:50;;;;;;;25.50;3.67;;;8.20;99.90;;;;;;5154189;27;20073;-69
2022/12/26 10:17:41;;;;;;;16.77;3.33;;;8.70;99.90;;;;;;5153688;27;20103;-70
2022/12/26 10:20:19;;;;;;;25.95;3.05;;;;;;;;;;5154220;27;20058;-69
2022/12/26 10:22:54;;;;;;;15.07;2.22;;;8.30;99.90;;;;;;5147574;27;20135;-71
2022/12/26 10:25:25;;;;;;;15.05;2.83;;;;;;;;;;5152535;27;20049;-69
2022/12/26 10:27:51;;;;;;;21.98;3.05;;;8.20;99.90;;;;;;5135254;27;20046;-70
2022/12/26 10:30:35;;;;;;;13.73;2.58;;;8.60;99.90;;;;;;5134751;27;20051;-70
2022/12/26 10:33:13;;;;;;;23.88;3.35;;;8.40;99.90;;;;;;5133363;27;20050;-68
2022/12/26 10:35:43;;;;;;;27.00;2.80;;;8.20;99.90;;;;;;5153601;27;20057;-68
2022/12/26 10:38:37;;;;;;;9.32;1.92;;;8.10;99.90;;;;;;5153208;27;20550;-70
2022/12/26 10:41:44;;;;;;;21.08;2.80;;;8.20;99.90;;;;;;5148123;27;20566;-69
2022/12/26 10:44:11;;;;;;;12.05;2.25;;;8.20;99.90;;;;;;5117679;27;20487;-69
2022/12/26 10:46:43;;;;;;;19.77;2.60;;;7.90;99.90;;;;;;5135416;27;20050;-69
2022/12/26 10:49:14;;;;;;;21.40;3.00;;;8.00;99.90;;;;;;5135336;27;20047;-68
2022/12/26 10:51:40;;;;;;;13.10;2.30;;;8.20;99.90;;;;;;5135185;27;20099;-69
2022/12/26 10:54:16;;;;;;;10.75;1.98;;;8.10;99.90;;;;;;5135264;27;20038;-68
2022/12/26 10:56:44;;;;;;;10.27;1.85;;;8.10;99.90;;;;;;5135388;27;20133;-68
2022/12/26 10:59:18;;;;;;;13.32;1.90;;;8.30;99.90;;;;;;5153587;27;20046;-71
2022/12/26 11:01:47;;;;;;;14.77;1.85;;;8.10;99.90;;;;;;5153549;27;20043;-68
2022/12/26 11:04:22;;;;;;;17.52;2.22;;;7.90;99.90;;;;;;5134571;27;20058;-68
2022/12/26 11:06:51;;;;;;;11.43;2.53;;;7.80;99.90;;;;;;5107359;27;20061;-68
2022/12/26 11:09:41;;;;;;;10.50;2.78;;;8.20;99.90;;;;;;5151938;27;20126;-68
2022/12/26 11:12:23;;;;;;;18.40;2.95;;;8.00;99.90;;;;;;5134953;27;20035;-69
2022/12/26 11:14:55;;;;;;;12.18;1.95;;;7.80;99.90;;;;;;5152768;27;20050;-67
2022/12/26 11:17:34;;;;;;;20.60;2.45;;;7.90;99.90;;;;;;5149927;27;20516;-70
2022/12/26 11:20:15;;;;;;;15.52;2.00;;;7.70;99.90;;;;;;5150227;27;20039;-68
2022/12/26 11:22:45;;;;;;;17.98;2.25;;;7.90;99.90;;;;;;5150531;27;20038;-70
2022/12/26 11:25:26;;;;;;;13.93;2.28;;;8.10;99.90;;;;;;5153383;27;20123;-68
2022/12/26 11:27:56;;;;;;;15.93;2.10;;;7.70;99.90;;;;;;5135005;27;20057;-68
2022/12/26 11:30:33;;;;;;;16.95;2.28;;;8.00;99.90;;;;;;5153142;27;20054;-69
2022/12/26 11:33:25;;;;;;;10.45;1.92;;;7.60;99.90;;;;;;5152940;27;20043;-68
2022/12/26 11:36:08;;;;;;;14.88;2.33;;;7.70;99.90;;;;;;5152972;27;20093;-68
2022/12/26 11:38:50;;;;;;;20.75;2.30;;;7.40;99.90;;;;;;5153108;27;20054;-67
2022/12/26 11:41:31;;;;;;;15.82;2.25;;;7.90;99.90;;;;;;5126227;27;20053;-68
2022/12/26 11:44:14;;;;;;;11.80;1.88;;;8.00;99.90;;;;;;5151007;27;20042;-69
2022/12/26 11:46:57;;;;;;;13.95;2.45;;;7.70;99.90;;;;;;5134107;27;20038;-66
2022/12/26 11:49:51;;;;;;;20.90;2.65;;;8.00;99.90;;;;;;5153200;27;20043;-69
2022/12/26 11:52:38;;;;;;;11.40;1.90;;;7.70;99.90;;;;;;5137379;27;20039;-68
2022/12/26 11:55:25;;;;;;;;;;;7.50;99.90;;;;;;5156209;27;20476;-67
2022/12/26 11:58:09;;;;;;;8.90;2.63;;;7.80;99.90;;;;;;5156293;27;19966;-68
2022/12/26 12:00:41;;;;;;;16.75;2.60;;;8.00;99.90;;;;;;5137613;27;20046;-67
2022/12/26 12:03:38;;;;;;;14.27;2.65;;;7.70;99.90;;;;;;5155149;27;20460;-66
2022/12/26 12:06:19;;;;;;;13.88;2.83;;;7.60;99.90;;;;;;5137075;27;20046;-68
2022/12/26 12:09:15;;;;;;;12.57;2.60;;;8.00;99.90;;;;;;5155876;27;20405;-67
2022/12/26 12:11:49;;;;;;;20.80;3.80;;;7.80;99.90;;;;;;5154662;27;20103;-66
2022/12/26 12:14:44;;;;;;;7.22;2.15;;;7.90;99.90;;;;;;5156524;27;20050;-67
2022/12/26 12:17:49;;;;;;;17.70;2.85;;;7.90;99.90;;;;;;5137557;27;20050;-66
2022/12/26 12:20:34;;;;;;;14.52;2.42;;;7.90;99.90;;;;;;5154305;27;20066;-67
2022/12/26 12:23:36;;;;;;;14.10;2.38;;;7.70;99.90;;;;;;5156258;27;20054;-68
2022/12/26 12:26:25;;;;;;;15.43;2.50;;;7.90;99.90;;;;;;5156025;27;20054;-69
2022/12/26 12:29:15;;;;;;;20.80;3.20;;;7.80;99.90;;;;;;5156315;27;20043;-66
2022/12/26 12:32:06;;;;;;;19.75;2.75;;;8.00;99.90;;;;;;5137587;27;20043;-67
2022/12/26 12:34:34;;;;;;;23.75;2.90;;;7.60;99.90;;;;;;5156106;27;20053;-68
2022/12/26 12:37:52;;;;;;;20.77;3.58;;;7.90;99.90;;;;;;5137386;27;20058;-69
2022/12/26 12:40:32;;;;;;;18.40;2.92;;;7.60;99.90;;;;;;5127740;27;20054;-68
2022/12/26 12:43:10;;;;;;;18.25;2.72;;;7.90;99.90;;;;;;5155854;27;20494;-65
2022/12/26 12:46:20;;;;;;;14.75;1.88;;;7.90;99.90;;;;;;5155609;27;20050;-66
2022/12/26 12:49:01;;;;;;;17.83;4.13;;;8.30;99.90;;;;;;5106957;27;20097;-68
2022/12/26 12:51:51;;;;;;;20.90;3.45;;;8.20;99.90;;;;;;5155470;27;20046;-70
2022/12/26 12:54:25;;;;;;;9.77;2.03;;;7.80;99.90;;;;;;5155626;27;20666;-68
2022/12/26 12:57:09;;;;;;;13.00;3.13;;;8.00;99.90;;;;;;5155705;27;20376;-68
2022/12/26 13:00:00;;;;;;;17.08;2.95;;;8.20;99.90;;;;;;5155204;27;20470;-67
2022/12/26 13:02:38;;;;;;;14.68;2.47;;;8.30;99.90;;;;;;5155212;27;20387;-67
2022/12/26 13:05:18;;;;;;;16.23;2.33;;;8.30;99.90;;;;;;5155233;27;20087;-67
2022/12/26 13:07:51;;;;;;;25.00;2.75;;;8.50;99.90;;;;;;5155485;27;20039;-67
2022/12/26 13:10:29;;;;;;;12.30;3.22;;;8.50;99.90;;;;;;5155533;27;20053;-69
2022/12/26 13:12:56;;;;;;;21.45;3.08;;;8.40;99.90;;;;;;5155504;27;20117;-67
2022/12/26 13:15:41;;;;;;;17.23;2.90;;;8.30;99.90;;;;;;5155100;27;20042;-67
2022/12/26 13:18:27;;;;;;;17.05;2.60;;;8.70;99.90;;;;;;5137314;27;20046;-67
2022/12/26 13:20:57;;;;;;;12.07;2.20;;;8.40;99.90;;;;;;5154990;27;20145;-69
2022/12/26 13:26:32;;;;;;;15.07;2.78;;;8.40;99.90;;;;;;5155138;27;20145;-66
2022/12/26 13:29:01;;;;;;;15.63;2.45;;;8.80;99.90;;;;;;5136174;27;20127;-68
2022/12/26 13:31:35;;;;;;;17.45;3.33;;;8.60;99.90;;;;;;5136564;27;20050;-67
2022/12/26 13:34:02;;;;;;;13.63;2.97;;;8.60;99.90;;;;;;5154878;27;20046;-67
2022/12/26 13:36:46;;;;;;;16.33;2.30;;;8.90;99.90;;;;;;5153206;27;20127;-67
2022/12/26 13:39:15;;;;;;;17.00;3.15;;;8.60;99.90;;;;;;5154987;27;20039;-65
2022/12/26 13:44:40;;;;;;;16.58;2.70;;;8.00;99.90;;;;;;5154603;27;20157;-67
2022/12/26 13:47:30;;;;;;;21.45;3.13;;;7.90;99.90;;;;;;5154820;27;20383;-67
2022/12/26 13:49:56;;;;;;;19.08;2.30;;;7.70;99.90;;;;;;5154811;27;20039;-67
2022/12/26 13:52:33;;;;;;;12.90;2.75;;;7.40;99.90;;;;;;5154612;27;20094;-68
2022/12/26 13:55:05;;;;;;;16.58;2.22;;;7.70;99.90;;;;;;5154538;27;20053;-68
2022/12/26 13:57:39;;;;;;;19.73;2.45;;;7.50;99.90;;;;;;5147423;27;20191;-69
2022/12/26 14:00:08;;;;;;;14.95;2.55;;;7.60;99.90;;;;;;5154166;27;20043;-66
2022/12/26 14:02:55;;;;;;;14.13;3.17;;;7.20;99.90;;;;;;5149201;27;20039;-68
2022/12/26 14:05:45;;;;;;;19.00;3.08;;;7.30;99.90;;;;;;5132734;27;20055;-70
2022/12/26 14:08:20;;;;;;;24.08;2.60;;;7.10;99.90;;;;;;5133714;27;20043;-66
2022/12/26 14:11:07;;;;;;;16.98;2.78;;;7.20;99.90;;;;;;5114953;27;20521;-68
2022/12/26 14:13:47;;;;;;;16.42;2.38;;;7.30;99.90;;;;;;5133025;27;20452;-68
2022/12/26 14:16:38;;;;;;;16.15;2.45;;;7.30;99.90;;;;;;5133523;27;20146;-66
2022/12/26 14:19:26;;;;;;;10.38;2.38;;;6.90;99.90;;;;;;5115158;27;20235;-68
2022/12/26 14:22:13;;;;;;;16.67;3.10;;;6.80;99.90;;;;;;5133337;27;20506;-66
2022/12/26 14:24:53;;;;;;;26.25;3.08;;;7.10;99.90;;;;;;5133427;27;20047;-68
2022/12/26 14:27:34;;;;;;;18.05;2.70;;;7.10;99.90;;;;;;5133128;27;20461;-68
2022/12/26 14:30:52;;;;;;;19.55;2.38;;;6.80;99.90;;;;;;5114954;27;20043;-68
2022/12/26 14:33:47;;;;;;;18.15;2.58;;;7.10;99.90;;;;;;5076179;27;20097;-66
2022/12/26 14:36:28;;;;;;;16.83;2.55;;;7.10;99.90;;;;;;5124132;27;20066;-68
2022/12/26 14:39:11;;;;;;;18.02;2.83;;;6.90;99.90;;;;;;5133273;27;20191;-67
2022/12/26 14:45:01;;;;;;;18.85;2.67;;;;;;;;;;5133055;27;20065;-67
2022/12/26 14:47:36;;;;;;;16.67;2.08;;;;;;;;;;5133073;27;20082;-67
2022/12/26 14:50:32;;;;;;;14.77;2.35;;;6.60;99.90;;;;;;5133033;27;20085;-68
2022/12/26 14:53:27;;;;;;;11.02;2.08;;;;;;;;;;5132934;27;20047;-70
2022/12/26 14:56:09;;;;;;;18.58;2.30;;;6.70;99.90;;;;;;5148221;27;20049;-68
2022/12/26 14:58:43;;;;;;;16.63;2.50;;;6.60;99.90;;;;;;5153301;27;20074;-67
2022/12/26 15:01:12;;;;;;;15.30;2.00;;;6.40;99.90;;;;;;5152688;27;20095;-73
2022/12/26 15:03:38;;;;;;;13.93;2.20;;;6.50;99.90;;;;;;5152670;27;20145;-68
2022/12/26 15:06:17;;;;;;;16.13;2.83;;;6.40;99.90;;;;;;5134632;27;20138;-69
2022/12/26 15:08:46;;;;;;;11.18;2.22;;;6.80;99.90;;;;;;5152664;27;20043;-68
2022/12/26 15:11:30;;;;;;;17.02;2.90;;;6.90;99.90;;;;;;5152885;27;20386;-69
2022/12/26 15:14:13;;;;;;;9.93;2.05;;;6.40;99.90;;;;;;5153541;27;20047;-69
2022/12/26 15:16:54;;;;;;;19.85;3.13;;;6.60;99.90;;;;;;5152738;27;20051;-70
2022/12/26 15:19:47;;;;;;;19.75;3.00;;;6.10;99.90;;;;;;5134905;27;20490;-69
2022/12/26 15:22:40;;;;;;;11.40;2.45;;;6.20;99.90;;;;;;5153053;27;20428;-69
2022/12/26 15:25:08;;;;;;;21.55;2.97;;;6.00;99.90;;;;;;5155296;27;20371;-69
2022/12/26 15:27:56;;;;;;;10.65;2.60;;;6.00;99.90;;;;;;5138883;27;20071;-73